createdAt,value
2023-12-11T00:01:15.704Z,99727.19
2023-12-11T00:03:42.872Z,99729.66
2023-12-11T00:06:10.772Z,99733.66
2023-12-11T00:08:37.719Z,99725.84
2023-12-11T00:11:04.465Z,99724.77
2023-12-11T00:13:31.306Z,99726.21
2023-12-11T00:15:58.092Z,99726.31
2023-12-11T00:18:25.175Z,99719.88
2023-12-11T00:20:52.039Z,99719.01
2023-12-11T00:23:19.092Z,99716.72
2023-12-11T00:25:48.707Z,99711.27
2023-12-11T00:28:15.529Z,99706.66
2023-12-11T00:30:42.758Z,99702.28
2023-12-11T00:33:09.607Z,99697.98
2023-12-11T00:35:36.593Z,99695.73
2023-12-11T00:38:03.349Z,99693.85
2023-12-11T00:40:30.189Z,99688.21
2023-12-11T00:42:57.337Z,99683.63
2023-12-11T00:45:24.272Z,99688.69
2023-12-11T00:47:50.962Z,99689.39
2023-12-11T00:50:17.864Z,99691.96
2023-12-11T00:52:44.742Z,99692.73
2023-12-11T00:55:11.868Z,99692.38
2023-12-11T00:57:39.152Z,99683.86
2023-12-11T01:00:06.786Z,99681.03
2023-12-11T01:02:34.033Z,99681.46
2023-12-11T01:05:01.096Z,99674.64
2023-12-11T01:07:28.240Z,99670.41
2023-12-11T01:09:55.809Z,99668.77
2023-12-11T01:12:22.635Z,99666.77
2023-12-11T01:14:49.376Z,99666.53
2023-12-11T01:17:37.234Z,99661.63
2023-12-11T01:20:04.048Z,99662.41
2023-12-11T01:22:31.121Z,99662.23
2023-12-11T01:25:02.371Z,99659.70
2023-12-11T01:27:29.723Z,99659.25
2023-12-11T01:29:56.768Z,99656.27
2023-12-11T01:32:23.614Z,99659.34
2023-12-11T01:34:50.508Z,99661.40
2023-12-11T01:37:18.539Z,99663.18
2023-12-11T01:39:45.690Z,99658.39
2023-12-11T01:42:12.743Z,99654.52
2023-12-11T01:44:39.729Z,99651.14
2023-12-11T01:47:06.723Z,99642.11
2023-12-11T01:49:35.269Z,99638.77
2023-12-11T01:52:02.450Z,99637.14
2023-12-11T01:54:30.024Z,99638.46
2023-12-11T01:56:56.880Z,99633.61
2023-12-11T01:59:23.713Z,99634.70
2023-12-11T02:01:50.834Z,99644.44
2023-12-11T02:04:17.829Z,99640.46
2023-12-11T02:06:44.706Z,99637.75
2023-12-11T02:09:11.812Z,99635.16
2023-12-11T02:11:38.581Z,99633.42
2023-12-11T02:14:05.290Z,99627.98
2023-12-11T02:16:32.347Z,99616.25
2023-12-11T02:18:59.458Z,99619.59
2023-12-11T02:21:26.540Z,99625.04
2023-12-11T02:24:36.920Z,99621.80
2023-12-11T02:27:04.018Z,99623.73
2023-12-11T02:29:30.694Z,99627.23
2023-12-11T02:31:57.442Z,99621.40
2023-12-11T02:34:26.771Z,99617.92
2023-12-11T02:36:53.527Z,99610.77
2023-12-11T02:39:20.433Z,99603.23
2023-12-11T02:41:47.271Z,99602.30
2023-12-11T02:44:14.116Z,99605.48
2023-12-11T02:46:40.871Z,99610.19
2023-12-11T02:49:07.973Z,99611.08
2023-12-11T02:51:34.811Z,99611.13
2023-12-11T02:54:01.699Z,99611.85
2023-12-11T02:56:28.960Z,99605.66
2023-12-11T02:58:55.804Z,99608.78
2023-12-11T03:01:22.588Z,99615.47
2023-12-11T03:03:49.568Z,99615.23
2023-12-11T03:06:20.497Z,99612.30
2023-12-11T03:08:47.438Z,99614.59
2023-12-11T03:11:14.370Z,99611.54
2023-12-11T03:13:41.066Z,99614.39
2023-12-11T03:16:12.705Z,99613.63
2023-12-11T03:18:43.550Z,99620.00
2023-12-11T03:21:10.609Z,99621.20
2023-12-11T03:23:39.011Z,99620.50
2023-12-11T03:26:06.450Z,99618.76
2023-12-11T03:28:33.319Z,99620.53
2023-12-11T03:31:00.099Z,99627.71
2023-12-11T03:33:26.894Z,99630.98
2023-12-11T03:35:53.724Z,99635.98
2023-12-11T03:38:20.674Z,99638.02
2023-12-11T03:40:47.728Z,99634.80
2023-12-11T03:43:14.641Z,99625.15
2023-12-11T03:45:41.639Z,99617.59
2023-12-11T03:50:35.718Z,99616.20
2023-12-11T03:53:02.381Z,99613.34
2023-12-11T03:55:29.302Z,99614.54
2023-12-11T03:57:56.091Z,99615.30
2023-12-11T04:00:23.300Z,99617.41
2023-12-11T04:02:50.056Z,99602.12
2023-12-11T04:05:16.883Z,99596.96
2023-12-11T04:07:43.731Z,99595.58
2023-12-11T04:10:11.403Z,99593.54
2023-12-11T04:12:41.947Z,99593.42
2023-12-11T04:15:09.515Z,99591.38
2023-12-11T04:17:37.679Z,99590.48
2023-12-11T04:20:05.860Z,99589.90
2023-12-11T04:22:32.894Z,99591.86
2023-12-11T04:24:59.800Z,99589.26
2023-12-11T04:27:26.804Z,99589.09
2023-12-11T04:29:53.536Z,99588.11
2023-12-11T04:32:20.524Z,99587.16
2023-12-11T04:34:47.435Z,99582.73
2023-12-11T04:37:14.374Z,99585.39
2023-12-11T04:39:41.221Z,99589.67
2023-12-11T04:42:07.941Z,99590.83
2023-12-11T04:44:34.688Z,99585.52
2023-12-11T04:47:01.578Z,99587.49
2023-12-11T04:49:28.567Z,99588.75
2023-12-11T04:51:55.434Z,99586.25
2023-12-11T04:54:22.177Z,99582.41
2023-12-11T04:56:49.114Z,99581.39
2023-12-11T04:59:16.065Z,99579.83
2023-12-11T05:01:42.869Z,99580.69
2023-12-11T05:04:10.102Z,99577.54
2023-12-11T05:06:36.945Z,99572.20
2023-12-11T05:09:03.749Z,99565.52
2023-12-11T05:11:30.488Z,99564.35
2023-12-11T05:13:57.138Z,99569.25
2023-12-11T05:16:26.724Z,99568.51
2023-12-11T05:18:54.896Z,99562.67
2023-12-11T05:21:22.883Z,99554.67
2023-12-11T05:23:49.624Z,99550.50
2023-12-11T05:26:22.462Z,99542.02
2023-12-11T05:28:49.559Z,99544.60
2023-12-11T05:31:16.393Z,99540.39
2023-12-11T05:33:43.438Z,99537.89
2023-12-11T05:36:11.013Z,99538.41
2023-12-11T05:38:37.960Z,99531.09
2023-12-11T05:41:05.558Z,99532.09
2023-12-11T05:43:32.374Z,99532.35
2023-12-11T05:45:59.420Z,99531.09
2023-12-11T05:48:26.438Z,99529.60
2023-12-11T05:50:53.212Z,99525.83
2023-12-11T05:53:20.050Z,99525.79
2023-12-11T05:55:47.417Z,99523.02
2023-12-11T05:58:14.227Z,99523.11
2023-12-11T06:00:41.272Z,99525.49
2023-12-11T06:03:08.203Z,99532.40
2023-12-11T06:05:35.394Z,99531.98
2023-12-11T06:08:02.972Z,99535.50
2023-12-11T06:10:30.431Z,99538.82
2023-12-11T06:12:57.226Z,99537.05
2023-12-11T06:15:24.025Z,99543.16
2023-12-11T06:17:50.916Z,99538.77
2023-12-11T06:20:17.919Z,99546.77
2023-12-11T06:22:47.911Z,99552.27
2023-12-11T06:25:14.690Z,99555.94
2023-12-11T06:27:41.451Z,99558.46
2023-12-11T06:30:09.174Z,99553.25
2023-12-11T06:32:35.945Z,99549.14
2023-12-11T06:35:03.891Z,99549.00
2023-12-11T06:37:31.597Z,99540.73
2023-12-11T06:39:58.629Z,99539.55
2023-12-11T06:42:25.677Z,99539.83
2023-12-11T06:44:54.143Z,99542.20
2023-12-11T06:47:20.888Z,99536.21
2023-12-11T06:49:48.186Z,99533.59
2023-12-11T06:52:16.436Z,99530.15
2023-12-11T06:54:43.505Z,99539.46
2023-12-11T06:57:10.305Z,99544.58
2023-12-11T06:59:37.153Z,99544.18
2023-12-11T07:02:04.989Z,99549.61
2023-12-11T07:04:31.947Z,99548.20
2023-12-11T07:06:58.829Z,99550.42
2023-12-11T07:09:27.054Z,99552.11
2023-12-11T07:11:53.757Z,99551.83
2023-12-11T07:14:21.084Z,99556.30
2023-12-11T07:16:47.882Z,99556.64
2023-12-11T07:19:15.114Z,99554.99
2023-12-11T07:21:46.199Z,99559.16
2023-12-11T07:24:13.010Z,99553.63
2023-12-11T07:26:40.201Z,99553.46
2023-12-11T07:29:09.862Z,99557.20
2023-12-11T07:31:36.674Z,99552.54
2023-12-11T07:34:03.752Z,99550.72
2023-12-11T07:36:31.530Z,99549.67
2023-12-11T07:38:58.397Z,99546.64
2023-12-11T07:41:25.246Z,99545.48
2023-12-11T07:43:51.894Z,99537.98
2023-12-11T07:46:25.190Z,99542.11
2023-12-11T07:48:52.685Z,99537.60
2023-12-11T07:51:20.465Z,99540.54
2023-12-11T07:53:47.478Z,99541.95
2023-12-11T07:56:21.309Z,99551.05
2023-12-11T07:58:48.038Z,99549.76
2023-12-11T08:01:15.225Z,99542.31
2023-12-11T08:03:42.308Z,99541.21
2023-12-11T08:06:09.354Z,99545.33
2023-12-11T08:08:45.712Z,99540.60
2023-12-11T08:11:25.527Z,99543.77
2023-12-11T08:13:52.841Z,99529.88
2023-12-11T08:16:19.874Z,99527.52
2023-12-11T08:18:48.709Z,99526.98
2023-12-11T08:21:17.455Z,99525.39
2023-12-11T08:23:44.473Z,99526.70
2023-12-11T08:26:18.948Z,99531.20
2023-12-11T08:28:46.570Z,99523.85
2023-12-11T08:31:13.396Z,99519.39
2023-12-11T08:33:40.447Z,99514.80
2023-12-11T08:36:07.686Z,99517.80
2023-12-11T08:38:34.328Z,99510.66
2023-12-11T08:41:01.131Z,99511.86
2023-12-11T08:43:27.948Z,99511.33
2023-12-11T08:45:54.831Z,99510.56
2023-12-11T08:48:21.739Z,99502.98
2023-12-11T08:50:53.147Z,99503.35
2023-12-11T08:53:21.120Z,99506.25
2023-12-11T08:55:48.444Z,99498.91
2023-12-11T08:58:15.373Z,99502.48
2023-12-11T09:00:42.995Z,99502.74
2023-12-11T09:03:10.151Z,99503.26
2023-12-11T09:05:37.030Z,99496.91
2023-12-11T09:08:04.379Z,99492.49
2023-12-11T09:10:31.311Z,99491.67
2023-12-11T09:12:58.247Z,99490.04
2023-12-11T09:15:25.175Z,99490.17
2023-12-11T09:17:53.931Z,99486.52
2023-12-11T09:20:20.750Z,99486.80
2023-12-11T09:22:48.427Z,99491.81
2023-12-11T09:25:15.208Z,99486.23
2023-12-11T09:27:42.128Z,99485.09
2023-12-11T09:30:12.891Z,99483.75
2023-12-11T09:32:40.063Z,99476.36
2023-12-11T09:35:08.014Z,99468.67
2023-12-11T09:37:34.882Z,99469.40
2023-12-11T09:40:01.777Z,99465.61
2023-12-11T09:42:28.876Z,99462.80
2023-12-11T09:44:55.640Z,99468.05
2023-12-11T09:47:28.007Z,99463.30
2023-12-11T09:49:55.110Z,99465.48
2023-12-11T09:52:25.218Z,99471.59
2023-12-11T09:54:52.255Z,99465.64
2023-12-11T09:57:19.768Z,99464.26
2023-12-11T09:59:47.574Z,99463.39
2023-12-11T10:02:15.361Z,99464.19
2023-12-11T10:05:05.076Z,99462.10
2023-12-11T10:07:34.889Z,99459.31
2023-12-11T10:10:21.374Z,99455.67
2023-12-11T10:12:48.479Z,99453.83
2023-12-11T10:15:22.684Z,99455.00
2023-12-11T10:18:09.147Z,99452.20
2023-12-11T10:20:37.881Z,99445.28
2023-12-11T10:23:15.668Z,99445.05
2023-12-11T10:25:44.895Z,99451.14
2023-12-11T10:28:12.796Z,99447.09
2023-12-11T10:30:56.508Z,99442.98
2023-12-11T10:33:25.274Z,99445.88
2023-12-11T10:35:52.766Z,99442.63
2023-12-11T10:38:23.925Z,99441.46
2023-12-11T10:40:51.142Z,99435.37
2023-12-11T10:43:18.508Z,99439.52
2023-12-11T10:45:48.224Z,99435.96
2023-12-11T10:48:17.871Z,99433.64
2023-12-11T10:50:44.838Z,99426.48
2023-12-11T10:53:11.579Z,99421.92
2023-12-11T10:55:38.601Z,99410.98
2023-12-11T10:58:07.907Z,99411.29
2023-12-11T11:00:34.700Z,99409.02
2023-12-11T11:03:01.657Z,99403.07
2023-12-11T11:05:29.598Z,99405.14
2023-12-11T11:08:24.508Z,99405.87
2023-12-11T11:10:55.434Z,99403.98
2023-12-11T11:13:23.921Z,99395.72
2023-12-11T11:15:54.050Z,99398.45
2023-12-11T11:18:21.277Z,99393.55
2023-12-11T11:21:07.899Z,99389.84
2023-12-11T11:23:42.733Z,99388.15
2023-12-11T11:26:31.900Z,99389.02
2023-12-11T11:28:58.752Z,99393.61
2023-12-11T11:31:49.114Z,99392.80
2023-12-11T11:34:19.031Z,99388.36
2023-12-11T11:36:50.387Z,99392.23
2023-12-11T11:39:17.173Z,99393.09
2023-12-11T11:41:44.643Z,99393.38
2023-12-11T11:44:11.604Z,99386.01
2023-12-11T11:46:54.949Z,99386.05
2023-12-11T11:49:29.742Z,99385.23
2023-12-11T11:51:56.955Z,99381.43
2023-12-11T11:54:27.020Z,99381.52
2023-12-11T11:56:54.457Z,99376.70
2023-12-11T11:59:21.304Z,99376.44
2023-12-11T12:01:55.623Z,99378.03
2023-12-11T12:04:32.462Z,99383.13
2023-12-11T12:07:04.021Z,99385.70
2023-12-11T12:09:34.555Z,99381.29
2023-12-11T12:12:01.525Z,99380.49
2023-12-11T12:14:28.879Z,99381.75
2023-12-11T12:16:55.933Z,99384.80
2023-12-11T12:19:32.614Z,99392.39
2023-12-11T12:21:59.694Z,99384.69
2023-12-11T12:24:26.615Z,99384.73
2023-12-11T12:26:55.915Z,99379.33
2023-12-11T12:29:22.857Z,99381.55
2023-12-11T12:31:49.717Z,99374.65
2023-12-11T12:34:17.436Z,99373.28
2023-12-11T12:36:44.636Z,99372.73
2023-12-11T12:39:17.515Z,99371.63
2023-12-11T12:41:44.256Z,99378.05
2023-12-11T12:44:11.194Z,99379.27
2023-12-11T12:46:47.488Z,99371.34
2023-12-11T12:49:17.930Z,99359.81
2023-12-11T12:51:48.984Z,99360.86
2023-12-11T12:54:16.801Z,99356.43
2023-12-11T12:56:44.908Z,99358.42
2023-12-11T12:59:12.287Z,99357.45
2023-12-11T13:01:40.781Z,99355.13
2023-12-11T13:04:09.459Z,99350.75
2023-12-11T13:06:36.312Z,99352.54
2023-12-11T13:09:03.901Z,99353.50
2023-12-11T13:11:40.069Z,99355.18
2023-12-11T13:14:08.277Z,99360.23
2023-12-11T13:16:36.025Z,99363.23
2023-12-11T13:19:03.120Z,99363.69
2023-12-11T13:21:30.320Z,99362.86
2023-12-11T13:23:58.963Z,99367.34
2023-12-11T13:26:27.074Z,99370.77
2023-12-11T13:28:53.921Z,99375.83
2023-12-11T13:31:21.718Z,99375.48
2023-12-11T13:33:50.304Z,99373.38
2023-12-11T13:36:17.119Z,99370.54
2023-12-11T13:38:44.620Z,99363.82
2023-12-11T13:41:12.341Z,99368.42
2023-12-11T13:43:39.286Z,99368.94
2023-12-11T13:46:06.425Z,99367.19
2023-12-11T13:48:34.034Z,99366.16
2023-12-11T13:51:01.227Z,99358.42
2023-12-11T13:53:28.219Z,99356.60
2023-12-11T13:55:54.969Z,99357.09
2023-12-11T13:58:21.821Z,99353.84
2023-12-11T14:00:49.240Z,99352.89
2023-12-11T14:03:21.536Z,99355.15
2023-12-11T14:05:49.349Z,99352.80
2023-12-11T14:08:17.965Z,99350.52
2023-12-11T14:10:45.209Z,99346.33
2023-12-11T14:13:13.655Z,99347.08
2023-12-11T14:15:41.582Z,99344.34
2023-12-11T14:18:08.731Z,99349.63
2023-12-11T14:20:37.640Z,99345.41
2023-12-11T14:23:04.919Z,99347.20
2023-12-11T14:25:32.601Z,99349.35
2023-12-11T14:28:04.841Z,99352.44
2023-12-11T14:30:35.806Z,99352.83
2023-12-11T14:33:03.950Z,99356.02
2023-12-11T14:35:30.953Z,99358.94
2023-12-11T14:37:57.827Z,99359.08
2023-12-11T14:40:24.687Z,99356.79
2023-12-11T14:42:51.651Z,99361.73
2023-12-11T14:45:18.520Z,99356.05
2023-12-11T14:47:45.579Z,99355.91
2023-12-11T14:50:12.725Z,99356.77
2023-12-11T14:52:39.557Z,99356.27
2023-12-11T14:55:07.763Z,99354.25
2023-12-11T14:57:35.006Z,99353.40
2023-12-11T15:00:02.187Z,99354.77
2023-12-11T15:02:29.697Z,99354.85
2023-12-11T15:04:56.995Z,99356.39
2023-12-11T15:07:24.105Z,99350.99
2023-12-11T15:09:51.100Z,99353.67
2023-12-11T15:12:18.086Z,99351.55
2023-12-11T15:14:45.433Z,99350.95
2023-12-11T15:17:12.099Z,99347.23
2023-12-11T15:19:41.901Z,99344.36
2023-12-11T15:22:08.892Z,99348.18
2023-12-11T15:24:35.828Z,99343.70
2023-12-11T15:27:04.400Z,99337.14
2023-12-11T15:29:31.390Z,99338.31
2023-12-11T15:31:58.233Z,99333.88
2023-12-11T15:34:25.122Z,99327.13
2023-12-11T15:36:52.270Z,99318.57
2023-12-11T15:39:19.430Z,99315.65
2023-12-11T15:41:46.077Z,99314.23
2023-12-11T15:44:12.758Z,99310.73
2023-12-11T15:46:41.576Z,99305.38
2023-12-11T15:49:08.542Z,99304.92
2023-12-11T15:51:35.475Z,99303.80
2023-12-11T15:54:02.441Z,99301.34
2023-12-11T15:56:32.598Z,99301.89
2023-12-11T15:58:59.345Z,99295.52
2023-12-11T16:01:26.583Z,99293.39
2023-12-11T16:03:53.805Z,99292.92
2023-12-11T16:06:20.764Z,99287.27
2023-12-11T16:08:47.672Z,99290.17
2023-12-11T16:11:15.332Z,99290.20
2023-12-11T16:13:42.595Z,99286.05
2023-12-11T16:16:12.883Z,99278.08
2023-12-11T16:18:40.880Z,99275.33
2023-12-11T16:21:07.720Z,99273.66
2023-12-11T16:23:34.680Z,99266.14
2023-12-11T16:26:05.357Z,99260.63
2023-12-11T16:28:34.171Z,99261.79
2023-12-11T16:31:01.431Z,99264.33
2023-12-11T16:33:30.543Z,99266.64
2023-12-11T16:35:57.490Z,99262.80
2023-12-11T16:38:24.330Z,99255.98
2023-12-11T16:40:51.587Z,99249.05
2023-12-11T16:43:19.089Z,99250.67
2023-12-11T16:45:46.682Z,99250.69
2023-12-11T16:48:13.728Z,99248.70
2023-12-11T16:50:44.600Z,99252.58
2023-12-11T16:53:11.650Z,99255.17
2023-12-11T16:55:38.534Z,99258.66
2023-12-11T16:58:06.036Z,99256.02
2023-12-11T17:00:32.806Z,99252.94
2023-12-11T17:02:59.741Z,99249.09
2023-12-11T17:05:26.804Z,99246.55
2023-12-11T17:07:53.851Z,99240.48
2023-12-11T17:10:21.114Z,99239.90
2023-12-11T17:12:48.052Z,99243.25
2023-12-11T17:15:15.447Z,99244.60
2023-12-11T17:17:42.511Z,99251.20
2023-12-11T17:20:10.449Z,99252.20
2023-12-11T17:22:37.582Z,99250.70
2023-12-11T17:25:05.425Z,99241.25
2023-12-11T17:27:32.875Z,99237.98
2023-12-11T17:30:03.087Z,99235.11
2023-12-11T17:32:31.985Z,99229.42
2023-12-11T17:34:59.721Z,99228.81
2023-12-11T17:37:27.130Z,99233.76
2023-12-11T17:39:56.270Z,99229.63
2023-12-11T17:42:26.782Z,99229.33
2023-12-11T17:44:54.757Z,99228.36
2023-12-11T17:47:21.815Z,99230.58
2023-12-11T17:49:49.212Z,99222.66
2023-12-11T17:52:16.406Z,99217.47
2023-12-11T17:54:44.168Z,99220.11
2023-12-11T17:57:11.124Z,99223.80
2023-12-11T17:59:38.183Z,99224.02
2023-12-11T18:02:05.820Z,99216.16
2023-12-11T18:04:33.585Z,99224.15
2023-12-11T18:07:00.712Z,99226.45
2023-12-11T18:09:28.208Z,99231.77
2023-12-11T18:11:55.069Z,99230.09
2023-12-11T18:14:23.631Z,99226.80
2023-12-11T18:16:50.475Z,99223.45
2023-12-11T18:19:17.475Z,99220.89
2023-12-11T18:21:44.690Z,99211.70
2023-12-11T18:24:11.669Z,99211.58
2023-12-11T18:26:39.392Z,99219.20
2023-12-11T18:29:06.258Z,99218.58
2023-12-11T18:31:33.264Z,99216.34
2023-12-11T18:34:00.430Z,99225.91
2023-12-11T18:36:27.496Z,99225.66
2023-12-11T18:38:54.558Z,99224.45
2023-12-11T18:41:23.617Z,99231.66
2023-12-11T18:43:50.996Z,99243.28
2023-12-11T18:46:19.495Z,99242.40
2023-12-11T18:48:46.640Z,99236.92
2023-12-11T18:51:25.867Z,99242.08
2023-12-11T18:53:52.832Z,99240.60
2023-12-11T18:56:20.395Z,99234.80
2023-12-11T18:58:47.421Z,99232.38
2023-12-11T19:01:14.732Z,99226.02
2023-12-11T19:03:42.582Z,99224.05
2023-12-11T19:06:10.214Z,99222.73
2023-12-11T19:08:37.514Z,99220.73
2023-12-11T19:11:06.730Z,99215.45
2023-12-11T19:13:33.703Z,99214.50
2023-12-11T19:16:00.768Z,99214.63
2023-12-11T19:18:27.936Z,99216.02
2023-12-11T19:20:55.407Z,99217.11
2023-12-11T19:23:22.733Z,99217.80
2023-12-11T19:25:52.043Z,99230.48
2023-12-11T19:28:20.117Z,99235.45
2023-12-11T19:30:47.550Z,99245.33
2023-12-11T19:33:14.822Z,99243.65
2023-12-11T19:35:44.848Z,99241.45
2023-12-11T19:38:12.844Z,99236.05
2023-12-11T19:40:40.255Z,99236.25
2023-12-11T19:43:07.780Z,99225.39
2023-12-11T19:45:34.679Z,99209.56
2023-12-11T19:48:01.599Z,99215.95
2023-12-11T19:50:28.569Z,99202.84
2023-12-11T19:52:55.198Z,99203.04
2023-12-11T19:55:22.011Z,99206.39
2023-12-11T19:57:48.842Z,99197.14
2023-12-11T20:00:16.140Z,99194.80
2023-12-11T20:02:45.697Z,99187.75
2023-12-11T20:05:12.557Z,99185.58
2023-12-11T20:07:39.429Z,99188.07
2023-12-11T20:10:09.226Z,99184.18
2023-12-11T20:12:36.458Z,99175.55
2023-12-11T20:15:04.426Z,99175.02
2023-12-11T20:17:34.138Z,99172.98
2023-12-11T20:20:04.849Z,99177.56
2023-12-11T20:22:32.260Z,99180.05
2023-12-11T20:24:59.052Z,99174.73
2023-12-11T20:27:25.872Z,99175.04
2023-12-11T20:29:52.607Z,99179.08
2023-12-11T20:32:19.565Z,99186.91
2023-12-11T20:34:46.682Z,99192.99
2023-12-11T20:37:14.009Z,99193.56
2023-12-11T20:39:41.217Z,99193.27
2023-12-11T20:42:08.166Z,99193.20
2023-12-11T20:44:35.005Z,99201.81
2023-12-11T20:47:01.847Z,99200.84
2023-12-11T20:49:28.875Z,99199.47
2023-12-11T20:51:55.958Z,99203.39
2023-12-11T20:54:22.793Z,99202.92
2023-12-11T20:56:50.071Z,99205.95
2023-12-11T20:59:17.772Z,99205.05
2023-12-11T21:01:44.732Z,99204.30
2023-12-11T21:04:12.033Z,99206.77
2023-12-11T21:06:39.482Z,99205.45
2023-12-11T21:09:11.596Z,99202.80
2023-12-11T21:11:38.599Z,99197.94
2023-12-11T21:14:05.641Z,99196.48
2023-12-11T21:16:35.929Z,99188.86
2023-12-11T21:19:02.988Z,99179.52
2023-12-11T21:21:30.278Z,99180.89
2023-12-11T21:23:57.009Z,99188.08
2023-12-11T21:26:24.660Z,99182.25
2023-12-11T21:28:52.728Z,99184.92
2023-12-11T21:31:29.467Z,99183.15
2023-12-11T21:33:56.879Z,99183.95
2023-12-11T21:36:25.233Z,99179.55
2023-12-11T21:38:52.159Z,99173.11
2023-12-11T21:41:19.062Z,99173.84
2023-12-11T21:43:50.360Z,99166.59
2023-12-11T21:46:17.737Z,99165.83
2023-12-11T21:48:45.313Z,99170.54
2023-12-11T21:51:16.228Z,99177.54
2023-12-11T21:53:43.349Z,99180.05
2023-12-11T21:56:35.989Z,99178.45
2023-12-11T21:59:35.743Z,99172.33
2023-12-11T22:02:15.771Z,99164.98
2023-12-11T22:04:43.201Z,99165.88
2023-12-11T22:07:17.939Z,99160.41
2023-12-11T22:09:47.818Z,99162.69
2023-12-11T22:12:14.695Z,99168.05
2023-12-11T22:14:43.740Z,99171.98
2023-12-11T22:17:10.520Z,99171.18
2023-12-11T22:19:37.260Z,99177.51
2023-12-11T22:22:04.637Z,99170.81
2023-12-11T22:24:31.469Z,99161.23
2023-12-11T22:26:58.312Z,99156.56
2023-12-11T22:29:25.616Z,99149.74
2023-12-11T22:31:52.326Z,99149.09
2023-12-11T22:34:19.178Z,99141.70
2023-12-11T22:36:46.000Z,99137.34
2023-12-11T22:39:12.730Z,99133.08
2023-12-11T22:41:39.491Z,99138.59
2023-12-11T22:44:06.318Z,99138.95
2023-12-11T22:46:33.271Z,99140.91
2023-12-11T22:49:00.155Z,99150.30
2023-12-11T22:51:27.268Z,99150.13
2023-12-11T22:53:54.011Z,99147.33
2023-12-11T22:56:20.857Z,99146.42
2023-12-11T22:58:47.627Z,99143.08
2023-12-11T23:01:14.576Z,99145.20
2023-12-11T23:03:41.408Z,99145.44
2023-12-11T23:06:11.900Z,99146.77
2023-12-11T23:08:39.274Z,99144.85
2023-12-11T23:11:06.489Z,99139.04
2023-12-11T23:13:33.303Z,99139.48
2023-12-11T23:16:00.661Z,99136.11
2023-12-11T23:18:27.558Z,99136.90
2023-12-11T23:20:54.427Z,99141.67
2023-12-11T23:23:21.381Z,99143.36
2023-12-11T23:25:54.650Z,99137.61
2023-12-11T23:28:25.850Z,99133.98
2023-12-11T23:30:52.715Z,99137.39
2023-12-11T23:33:19.686Z,99137.08
2023-12-11T23:35:46.792Z,99131.57
2023-12-11T23:38:13.598Z,99138.86
2023-12-11T23:40:40.337Z,99140.48
2023-12-11T23:43:07.356Z,99141.92
2023-12-11T23:45:34.229Z,99143.49
2023-12-11T23:48:01.014Z,99138.55
2023-12-11T23:50:27.909Z,99135.34
2023-12-11T23:52:54.980Z,99129.80
2023-12-11T23:55:21.654Z,99130.49
2023-12-11T23:57:48.763Z,99136.45
